sensor_id;sensor_type;location;lat;lon;timestamp;P1;durP1;ratioP1;P2;durP2;ratioP2
73264;SDS011;61493;51.008;14.088;2023-03-21T00:02:14;18.17;;;9.13;;
73264;SDS011;61493;51.008;14.088;2023-03-21T00:04:41;19.15;;;10.23;;
73264;SDS011;61493;51.008;14.088;2023-03-21T00:07:09;19.63;;;9.57;;
73264;SDS011;61493;51.008;14.088;2023-03-21T00:09:37;15.73;;;8.82;;
73264;SDS011;61493;51.008;14.088;2023-03-21T00:12:02;16.50;;;8.98;;
73264;SDS011;61493;51.008;14.088;2023-03-21T00:14:33;17.25;;;8.75;;
73264;SDS011;61493;51.008;14.088;2023-03-21T00:16:59;14.50;;;7.97;;
73264;SDS011;61493;51.008;14.088;2023-03-21T00:19:24;17.20;;;7.80;;
73264;SDS011;61493;51.008;14.088;2023-03-21T00:21:50;17.20;;;9.38;;
73264;SDS011;61493;51.008;14.088;2023-03-21T00:24:16;15.80;;;9.15;;
73264;SDS011;61493;51.008;14.088;2023-03-21T00:26:41;15.32;;;8.75;;
73264;SDS011;61493;51.008;14.088;2023-03-21T00:29:06;18.50;;;10.57;;
73264;SDS011;61493;51.008;14.088;2023-03-21T00:31:31;17.88;;;9.30;;
73264;SDS011;61493;51.008;14.088;2023-03-21T00:33:57;16.05;;;7.82;;
73264;SDS011;61493;51.008;14.088;2023-03-21T00:36:25;18.38;;;9.55;;
73264;SDS011;61493;51.008;14.088;2023-03-21T00:38:51;18.85;;;9.75;;
73264;SDS011;61493;51.008;14.088;2023-03-21T00:41:16;16.15;;;8.85;;
73264;SDS011;61493;51.008;14.088;2023-03-21T00:43:41;20.70;;;9.70;;
73264;SDS011;61493;51.008;14.088;2023-03-21T00:46:06;17.20;;;8.43;;
73264;SDS011;61493;51.008;14.088;2023-03-21T00:48:31;17.33;;;8.90;;
73264;SDS011;61493;51.008;14.088;2023-03-21T00:50:57;18.04;;;8.54;;
73264;SDS011;61493;51.008;14.088;2023-03-21T00:53:24;19.67;;;8.63;;
73264;SDS011;61493;51.008;14.088;2023-03-21T00:55:49;16.98;;;8.23;;
73264;SDS011;61493;51.008;14.088;2023-03-21T00:58:15;14.23;;;8.07;;
73264;SDS011;61493;51.008;14.088;2023-03-21T01:00:40;19.30;;;9.57;;
73264;SDS011;61493;51.008;14.088;2023-03-21T01:03:06;18.63;;;9.45;;
73264;SDS011;61493;51.008;14.088;2023-03-21T01:05:34;18.63;;;8.93;;
73264;SDS011;61493;51.008;14.088;2023-03-21T01:08:19;18.98;;;9.00;;
73264;SDS011;61493;51.008;14.088;2023-03-21T01:10:45;14.75;;;8.07;;
73264;SDS011;61493;51.008;14.088;2023-03-21T01:13:11;19.05;;;9.55;;
73264;SDS011;61493;51.008;14.088;2023-03-21T01:15:41;15.50;;;8.55;;
73264;SDS011;61493;51.008;14.088;2023-03-21T01:18:06;19.60;;;10.43;;
73264;SDS011;61493;51.008;14.088;2023-03-21T01:20:31;17.23;;;9.50;;
73264;SDS011;61493;51.008;14.088;2023-03-21T01:22:56;17.27;;;9.85;;
73264;SDS011;61493;51.008;14.088;2023-03-21T01:25:22;17.52;;;8.32;;
73264;SDS011;61493;51.008;14.088;2023-03-21T01:27:47;17.73;;;8.82;;
73264;SDS011;61493;51.008;14.088;2023-03-21T01:30:12;23.92;;;9.52;;
73264;SDS011;61493;51.008;14.088;2023-03-21T01:32:37;19.60;;;9.43;;
73264;SDS011;61493;51.008;14.088;2023-03-21T01:35:02;19.00;;;9.82;;
73264;SDS011;61493;51.008;14.088;2023-03-21T01:37:28;28.08;;;12.93;;
73264;SDS011;61493;51.008;14.088;2023-03-21T01:39:53;22.58;;;12.40;;
73264;SDS011;61493;51.008;14.088;2023-03-21T01:42:18;27.00;;;13.02;;
73264;SDS011;61493;51.008;14.088;2023-03-21T01:44:57;28.50;;;14.18;;
73264;SDS011;61493;51.008;14.088;2023-03-21T01:47:25;23.40;;;13.07;;
73264;SDS011;61493;51.008;14.088;2023-03-21T01:49:51;29.08;;;14.63;;
73264;SDS011;61493;51.008;14.088;2023-03-21T01:52:20;26.73;;;14.32;;
73264;SDS011;61493;51.008;14.088;2023-03-21T01:54:48;27.65;;;13.35;;
73264;SDS011;61493;51.008;14.088;2023-03-21T01:57:17;33.70;;;14.70;;
73264;SDS011;61493;51.008;14.088;2023-03-21T01:59:46;30.40;;;14.13;;
73264;SDS011;61493;51.008;14.088;2023-03-21T02:02:15;29.77;;;13.63;;
73264;SDS011;61493;51.008;14.088;2023-03-21T02:04:44;30.08;;;14.80;;
73264;SDS011;61493;51.008;14.088;2023-03-21T02:07:15;30.92;;;15.57;;
73264;SDS011;61493;51.008;14.088;2023-03-21T02:09:43;27.33;;;14.60;;
73264;SDS011;61493;51.008;14.088;2023-03-21T02:12:10;25.20;;;13.50;;
73264;SDS011;61493;51.008;14.088;2023-03-21T02:14:35;29.38;;;16.27;;
73264;SDS011;61493;51.008;14.088;2023-03-21T02:22:09;26.75;;;14.77;;
73264;SDS011;61493;51.008;14.088;2023-03-21T02:24:56;28.73;;;15.15;;
73264;SDS011;61493;51.008;14.088;2023-03-21T02:27:26;28.00;;;13.75;;
73264;SDS011;61493;51.008;14.088;2023-03-21T02:37:58;26.60;;;13.88;;
73264;SDS011;61493;51.008;14.088;2023-03-21T02:40:38;29.40;;;14.50;;
73264;SDS011;61493;51.008;14.088;2023-03-21T02:43:06;25.88;;;13.45;;
73264;SDS011;61493;51.008;14.088;2023-03-21T02:45:41;27.70;;;13.73;;
73264;SDS011;61493;51.008;14.088;2023-03-21T02:48:12;24.35;;;13.18;;
73264;SDS011;61493;51.008;14.088;2023-03-21T02:50:44;26.33;;;14.43;;
73264;SDS011;61493;51.008;14.088;2023-03-21T02:53:13;26.17;;;14.20;;
73264;SDS011;61493;51.008;14.088;2023-03-21T02:55:39;24.90;;;13.32;;
73264;SDS011;61493;51.008;14.088;2023-03-21T02:58:07;27.55;;;13.85;;
73264;SDS011;61493;51.008;14.088;2023-03-21T03:00:33;23.90;;;13.40;;
73264;SDS011;61493;51.008;14.088;2023-03-21T03:02:59;24.88;;;12.57;;
73264;SDS011;61493;51.008;14.088;2023-03-21T03:05:26;24.52;;;13.43;;
73264;SDS011;61493;51.008;14.088;2023-03-21T03:08:01;26.63;;;12.75;;
73264;SDS011;61493;51.008;14.088;2023-03-21T03:10:36;24.08;;;13.43;;
73264;SDS011;61493;51.008;14.088;2023-03-21T03:15:32;23.83;;;13.25;;
73264;SDS011;61493;51.008;14.088;2023-03-21T03:18:09;27.45;;;13.40;;
73264;SDS011;61493;51.008;14.088;2023-03-21T03:20:46;23.35;;;13.65;;
73264;SDS011;61493;51.008;14.088;2023-03-21T03:23:20;27.13;;;13.63;;
73264;SDS011;61493;51.008;14.088;2023-03-21T03:25:51;30.52;;;14.25;;
73264;SDS011;61493;51.008;14.088;2023-03-21T03:28:19;29.55;;;14.63;;
73264;SDS011;61493;51.008;14.088;2023-03-21T03:30:45;29.20;;;14.73;;
73264;SDS011;61493;51.008;14.088;2023-03-21T03:33:11;24.40;;;14.20;;
73264;SDS011;61493;51.008;14.088;2023-03-21T03:35:40;26.33;;;13.57;;
73264;SDS011;61493;51.008;14.088;2023-03-21T03:38:06;27.13;;;12.57;;
73264;SDS011;61493;51.008;14.088;2023-03-21T03:40:36;28.38;;;13.48;;
73264;SDS011;61493;51.008;14.088;2023-03-21T03:43:06;30.05;;;14.05;;
73264;SDS011;61493;51.008;14.088;2023-03-21T03:45:37;30.02;;;13.48;;
73264;SDS011;61493;51.008;14.088;2023-03-21T03:48:28;24.20;;;13.85;;
73264;SDS011;61493;51.008;14.088;2023-03-21T03:51:08;21.95;;;12.10;;
73264;SDS011;61493;51.008;14.088;2023-03-21T03:56:35;32.20;;;14.48;;
73264;SDS011;61493;51.008;14.088;2023-03-21T03:59:03;29.42;;;14.38;;
73264;SDS011;61493;51.008;14.088;2023-03-21T04:01:32;29.83;;;14.88;;
73264;SDS011;61493;51.008;14.088;2023-03-21T04:03:57;25.98;;;14.38;;
73264;SDS011;61493;51.008;14.088;2023-03-21T04:06:24;28.60;;;13.98;;
73264;SDS011;61493;51.008;14.088;2023-03-21T04:08:49;27.13;;;13.45;;
73264;SDS011;61493;51.008;14.088;2023-03-21T04:11:15;28.90;;;14.40;;
73264;SDS011;61493;51.008;14.088;2023-03-21T04:13:40;32.50;;;14.73;;
73264;SDS011;61493;51.008;14.088;2023-03-21T04:16:05;29.48;;;14.73;;
73264;SDS011;61493;51.008;14.088;2023-03-21T04:18:31;33.42;;;15.10;;
73264;SDS011;61493;51.008;14.088;2023-03-21T04:20:56;31.67;;;14.63;;
73264;SDS011;61493;51.008;14.088;2023-03-21T04:23:22;29.92;;;14.27;;
73264;SDS011;61493;51.008;14.088;2023-03-21T04:25:47;31.25;;;15.15;;
73264;SDS011;61493;51.008;14.088;2023-03-21T04:28:12;29.35;;;14.98;;
73264;SDS011;61493;51.008;14.088;2023-03-21T04:30:37;31.25;;;16.25;;
73264;SDS011;61493;51.008;14.088;2023-03-21T04:33:03;35.33;;;18.27;;
73264;SDS011;61493;51.008;14.088;2023-03-21T04:35:28;30.70;;;15.38;;
73264;SDS011;61493;51.008;14.088;2023-03-21T04:37:54;29.63;;;16.52;;
73264;SDS011;61493;51.008;14.088;2023-03-21T04:40:19;35.53;;;17.45;;
73264;SDS011;61493;51.008;14.088;2023-03-21T04:42:45;29.56;;;15.72;;
73264;SDS011;61493;51.008;14.088;2023-03-21T04:45:10;33.20;;;16.02;;
73264;SDS011;61493;51.008;14.088;2023-03-21T04:47:35;31.13;;;15.10;;
73264;SDS011;61493;51.008;14.088;2023-03-21T04:50:00;38.30;;;17.05;;
73264;SDS011;61493;51.008;14.088;2023-03-21T04:52:26;33.40;;;17.52;;
73264;SDS011;61493;51.008;14.088;2023-03-21T04:54:51;28.20;;;15.56;;
73264;SDS011;61493;51.008;14.088;2023-03-21T04:57:19;29.63;;;16.58;;
73264;SDS011;61493;51.008;14.088;2023-03-21T04:59:44;36.92;;;16.70;;
73264;SDS011;61493;51.008;14.088;2023-03-21T05:02:10;30.60;;;15.25;;
73264;SDS011;61493;51.008;14.088;2023-03-21T05:04:35;35.08;;;16.58;;
73264;SDS011;61493;51.008;14.088;2023-03-21T05:07:00;33.17;;;15.48;;
73264;SDS011;61493;51.008;14.088;2023-03-21T05:09:25;33.56;;;16.56;;
73264;SDS011;61493;51.008;14.088;2023-03-21T05:11:51;29.08;;;14.27;;
73264;SDS011;61493;51.008;14.088;2023-03-21T05:14:18;30.85;;;15.10;;
73264;SDS011;61493;51.008;14.088;2023-03-21T05:16:44;28.88;;;17.05;;
73264;SDS011;61493;51.008;14.088;2023-03-21T05:19:12;33.75;;;15.38;;
73264;SDS011;61493;51.008;14.088;2023-03-21T05:21:38;30.15;;;15.93;;
73264;SDS011;61493;51.008;14.088;2023-03-21T05:24:13;27.90;;;13.68;;
73264;SDS011;61493;51.008;14.088;2023-03-21T05:26:42;32.50;;;16.67;;
73264;SDS011;61493;51.008;14.088;2023-03-21T05:29:08;28.70;;;16.45;;
73264;SDS011;61493;51.008;14.088;2023-03-21T05:31:33;33.30;;;14.60;;
73264;SDS011;61493;51.008;14.088;2023-03-21T05:34:00;27.42;;;14.05;;
73264;SDS011;61493;51.008;14.088;2023-03-21T05:36:25;29.98;;;14.10;;
73264;SDS011;61493;51.008;14.088;2023-03-21T05:38:50;29.40;;;15.05;;
73264;SDS011;61493;51.008;14.088;2023-03-21T05:41:16;33.95;;;16.00;;
73264;SDS011;61493;51.008;14.088;2023-03-21T05:43:41;35.05;;;17.75;;
73264;SDS011;61493;51.008;14.088;2023-03-21T05:46:07;29.83;;;15.45;;
73264;SDS011;61493;51.008;14.088;2023-03-21T05:48:32;36.70;;;17.30;;
73264;SDS011;61493;51.008;14.088;2023-03-21T05:50:58;34.67;;;16.42;;
73264;SDS011;61493;51.008;14.088;2023-03-21T05:53:23;30.35;;;15.52;;
73264;SDS011;61493;51.008;14.088;2023-03-21T05:55:49;38.13;;;17.65;;
73264;SDS011;61493;51.008;14.088;2023-03-21T05:58:14;37.47;;;17.48;;
73264;SDS011;61493;51.008;14.088;2023-03-21T06:00:39;36.17;;;18.00;;
73264;SDS011;61493;51.008;14.088;2023-03-21T06:03:04;33.82;;;16.94;;
73264;SDS011;61493;51.008;14.088;2023-03-21T06:05:30;30.20;;;16.23;;
73264;SDS011;61493;51.008;14.088;2023-03-21T06:07:55;31.80;;;15.43;;
73264;SDS011;61493;51.008;14.088;2023-03-21T06:10:20;31.00;;;15.84;;
73264;SDS011;61493;51.008;14.088;2023-03-21T06:12:45;28.08;;;15.68;;
73264;SDS011;61493;51.008;14.088;2023-03-21T06:15:11;28.45;;;13.70;;
73264;SDS011;61493;51.008;14.088;2023-03-21T06:17:36;23.65;;;12.60;;
73264;SDS011;61493;51.008;14.088;2023-03-21T06:20:01;25.52;;;12.55;;
73264;SDS011;61493;51.008;14.088;2023-03-21T06:22:28;21.90;;;12.15;;
73264;SDS011;61493;51.008;14.088;2023-03-21T06:24:54;20.83;;;11.48;;
73264;SDS011;61493;51.008;14.088;2023-03-21T06:27:19;19.70;;;10.52;;
73264;SDS011;61493;51.008;14.088;2023-03-21T06:29:44;24.17;;;10.55;;
73264;SDS011;61493;51.008;14.088;2023-03-21T06:32:10;24.10;;;10.02;;
73264;SDS011;61493;51.008;14.088;2023-03-21T06:34:36;18.98;;;10.13;;
73264;SDS011;61493;51.008;14.088;2023-03-21T06:37:01;22.62;;;11.38;;
73264;SDS011;61493;51.008;14.088;2023-03-21T06:39:27;20.13;;;9.45;;
73264;SDS011;61493;51.008;14.088;2023-03-21T06:41:53;21.92;;;10.05;;
73264;SDS011;61493;51.008;14.088;2023-03-21T06:44:18;18.66;;;8.74;;
73264;SDS011;61493;51.008;14.088;2023-03-21T06:46:45;18.33;;;8.82;;
73264;SDS011;61493;51.008;14.088;2023-03-21T06:49:11;18.42;;;9.93;;
73264;SDS011;61493;51.008;14.088;2023-03-21T06:51:36;16.27;;;8.52;;
73264;SDS011;61493;51.008;14.088;2023-03-21T06:54:01;22.20;;;12.14;;
73264;SDS011;61493;51.008;14.088;2023-03-21T06:56:26;17.27;;;8.57;;
73264;SDS011;61493;51.008;14.088;2023-03-21T06:58:51;26.35;;;14.93;;
73264;SDS011;61493;51.008;14.088;2023-03-21T07:01:20;19.08;;;11.65;;
73264;SDS011;61493;51.008;14.088;2023-03-21T07:03:45;22.48;;;13.40;;
73264;SDS011;61493;51.008;14.088;2023-03-21T07:06:11;18.80;;;9.65;;
73264;SDS011;61493;51.008;14.088;2023-03-21T07:08:37;12.93;;;7.88;;
73264;SDS011;61493;51.008;14.088;2023-03-21T07:11:03;16.15;;;8.70;;
73264;SDS011;61493;51.008;14.088;2023-03-21T07:13:28;17.17;;;9.73;;
73264;SDS011;61493;51.008;14.088;2023-03-21T07:15:53;18.00;;;9.57;;
73264;SDS011;61493;51.008;14.088;2023-03-21T07:18:19;14.80;;;7.97;;
73264;SDS011;61493;51.008;14.088;2023-03-21T07:20:47;15.68;;;8.98;;
73264;SDS011;61493;51.008;14.088;2023-03-21T07:23:15;14.18;;;8.85;;
73264;SDS011;61493;51.008;14.088;2023-03-21T07:25:40;14.60;;;7.10;;
73264;SDS011;61493;51.008;14.088;2023-03-21T07:28:06;11.27;;;6.72;;
73264;SDS011;61493;51.008;14.088;2023-03-21T07:30:33;14.57;;;8.13;;
73264;SDS011;61493;51.008;14.088;2023-03-21T07:32:58;16.33;;;8.10;;
73264;SDS011;61493;51.008;14.088;2023-03-21T07:35:23;12.57;;;6.88;;
73264;SDS011;61493;51.008;14.088;2023-03-21T07:37:49;13.00;;;6.32;;
73264;SDS011;61493;51.008;14.088;2023-03-21T07:40:14;12.30;;;6.55;;
73264;SDS011;61493;51.008;14.088;2023-03-21T07:42:40;10.60;;;5.10;;
73264;SDS011;61493;51.008;14.088;2023-03-21T07:45:08;13.07;;;6.80;;
73264;SDS011;61493;51.008;14.088;2023-03-21T07:47:34;11.38;;;6.65;;
73264;SDS011;61493;51.008;14.088;2023-03-21T07:50:00;13.57;;;6.05;;
73264;SDS011;61493;51.008;14.088;2023-03-21T07:52:26;9.05;;;4.78;;
73264;SDS011;61493;51.008;14.088;2023-03-21T07:54:51;9.65;;;5.63;;
73264;SDS011;61493;51.008;14.088;2023-03-21T07:57:16;10.90;;;5.18;;
73264;SDS011;61493;51.008;14.088;2023-03-21T07:59:41;8.75;;;5.70;;
73264;SDS011;61493;51.008;14.088;2023-03-21T08:02:09;12.60;;;6.22;;
73264;SDS011;61493;51.008;14.088;2023-03-21T08:04:34;16.50;;;7.20;;
73264;SDS011;61493;51.008;14.088;2023-03-21T08:07:00;11.57;;;5.80;;
73264;SDS011;61493;51.008;14.088;2023-03-21T08:09:25;12.10;;;5.30;;
73264;SDS011;61493;51.008;14.088;2023-03-21T08:11:50;9.38;;;5.30;;
73264;SDS011;61493;51.008;14.088;2023-03-21T08:14:15;8.48;;;4.80;;
73264;SDS011;61493;51.008;14.088;2023-03-21T08:16:41;9.18;;;5.10;;
73264;SDS011;61493;51.008;14.088;2023-03-21T08:19:06;13.70;;;6.10;;
73264;SDS011;61493;51.008;14.088;2023-03-21T08:21:31;23.28;;;10.68;;
73264;SDS011;61493;51.008;14.088;2023-03-21T08:23:56;12.08;;;5.88;;
73264;SDS011;61493;51.008;14.088;2023-03-21T08:26:21;11.88;;;6.90;;
73264;SDS011;61493;51.008;14.088;2023-03-21T08:28:49;14.68;;;7.85;;
73264;SDS011;61493;51.008;14.088;2023-03-21T08:31:14;17.02;;;8.35;;
73264;SDS011;61493;51.008;14.088;2023-03-21T08:33:39;14.45;;;7.75;;
73264;SDS011;61493;51.008;14.088;2023-03-21T08:36:05;17.58;;;11.02;;
73264;SDS011;61493;51.008;14.088;2023-03-21T08:38:30;17.40;;;7.03;;
73264;SDS011;61493;51.008;14.088;2023-03-21T08:40:57;15.00;;;7.28;;
73264;SDS011;61493;51.008;14.088;2023-03-21T08:43:24;15.00;;;7.80;;
73264;SDS011;61493;51.008;14.088;2023-03-21T08:45:49;12.68;;;7.00;;
73264;SDS011;61493;51.008;14.088;2023-03-21T08:48:14;12.25;;;6.63;;
73264;SDS011;61493;51.008;14.088;2023-03-21T08:50:40;11.05;;;6.70;;
73264;SDS011;61493;51.008;14.088;2023-03-21T08:53:05;14.18;;;6.60;;
73264;SDS011;61493;51.008;14.088;2023-03-21T08:55:30;10.82;;;7.00;;
73264;SDS011;61493;51.008;14.088;2023-03-21T08:57:57;13.63;;;6.68;;
73264;SDS011;61493;51.008;14.088;2023-03-21T09:00:22;11.38;;;6.35;;
73264;SDS011;61493;51.008;14.088;2023-03-21T09:02:48;9.30;;;5.78;;
73264;SDS011;61493;51.008;14.088;2023-03-21T09:05:15;9.73;;;5.18;;
73264;SDS011;61493;51.008;14.088;2023-03-21T09:07:40;12.02;;;6.97;;
73264;SDS011;61493;51.008;14.088;2023-03-21T09:10:06;12.82;;;7.78;;
73264;SDS011;61493;51.008;14.088;2023-03-21T09:12:32;8.00;;;5.22;;
73264;SDS011;61493;51.008;14.088;2023-03-21T09:14:58;10.82;;;6.28;;
73264;SDS011;61493;51.008;14.088;2023-03-21T09:17:26;10.43;;;6.03;;
73264;SDS011;61493;51.008;14.088;2023-03-21T09:19:51;13.27;;;5.38;;
73264;SDS011;61493;51.008;14.088;2023-03-21T09:22:17;8.05;;;5.00;;
73264;SDS011;61493;51.008;14.088;2023-03-21T09:24:43;10.35;;;5.80;;
73264;SDS011;61493;51.008;14.088;2023-03-21T09:27:10;8.80;;;5.57;;
73264;SDS011;61493;51.008;14.088;2023-03-21T09:29:35;12.32;;;5.05;;
73264;SDS011;61493;51.008;14.088;2023-03-21T09:32:01;12.90;;;6.38;;
73264;SDS011;61493;51.008;14.088;2023-03-21T09:34:30;10.85;;;5.35;;
73264;SDS011;61493;51.008;14.088;2023-03-21T09:36:55;10.18;;;5.75;;
73264;SDS011;61493;51.008;14.088;2023-03-21T09:39:21;9.13;;;5.10;;
73264;SDS011;61493;51.008;14.088;2023-03-21T09:44:34;7.00;;;4.30;;
73264;SDS011;61493;51.008;14.088;2023-03-21T09:47:14;9.82;;;4.85;;
73264;SDS011;61493;51.008;14.088;2023-03-21T09:49:46;8.45;;;5.18;;
73264;SDS011;61493;51.008;14.088;2023-03-21T09:52:26;8.07;;;4.45;;
73264;SDS011;61493;51.008;14.088;2023-03-21T09:54:54;8.52;;;5.40;;
73264;SDS011;61493;51.008;14.088;2023-03-21T09:59:45;8.50;;;5.60;;
73264;SDS011;61493;51.008;14.088;2023-03-21T10:02:25;10.05;;;5.78;;
73264;SDS011;61493;51.008;14.088;2023-03-21T10:04:56;7.22;;;5.03;;
73264;SDS011;61493;51.008;14.088;2023-03-21T10:07:21;8.88;;;5.72;;
73264;SDS011;61493;51.008;14.088;2023-03-21T10:09:47;9.10;;;4.70;;
73264;SDS011;61493;51.008;14.088;2023-03-21T10:12:23;11.57;;;5.07;;
73264;SDS011;61493;51.008;14.088;2023-03-21T10:14:50;8.15;;;4.57;;
73264;SDS011;61493;51.008;14.088;2023-03-21T10:17:29;7.28;;;4.28;;
73264;SDS011;61493;51.008;14.088;2023-03-21T10:20:00;7.50;;;5.07;;
73264;SDS011;61493;51.008;14.088;2023-03-21T10:22:35;6.60;;;4.35;;
73264;SDS011;61493;51.008;14.088;2023-03-21T10:25:01;8.45;;;5.50;;
73264;SDS011;61493;51.008;14.088;2023-03-21T10:27:26;6.53;;;4.47;;
73264;SDS011;61493;51.008;14.088;2023-03-21T10:29:51;6.78;;;4.55;;
73264;SDS011;61493;51.008;14.088;2023-03-21T10:32:17;6.60;;;3.90;;
73264;SDS011;61493;51.008;14.088;2023-03-21T10:34:43;7.35;;;4.38;;
73264;SDS011;61493;51.008;14.088;2023-03-21T10:37:10;7.32;;;4.88;;
73264;SDS011;61493;51.008;14.088;2023-03-21T10:39:37;7.38;;;4.72;;
73264;SDS011;61493;51.008;14.088;2023-03-21T10:42:04;7.13;;;4.30;;
73264;SDS011;61493;51.008;14.088;2023-03-21T10:44:30;6.45;;;4.00;;
73264;SDS011;61493;51.008;14.088;2023-03-21T10:46:57;5.40;;;3.80;;
73264;SDS011;61493;51.008;14.088;2023-03-21T10:49:22;5.68;;;4.07;;
73264;SDS011;61493;51.008;14.088;2023-03-21T10:51:50;7.00;;;3.92;;
73264;SDS011;61493;51.008;14.088;2023-03-21T10:54:17;5.65;;;3.75;;
73264;SDS011;61493;51.008;14.088;2023-03-21T10:56:44;5.50;;;4.00;;
73264;SDS011;61493;51.008;14.088;2023-03-21T10:59:16;6.88;;;4.28;;
73264;SDS011;61493;51.008;14.088;2023-03-21T11:01:47;5.28;;;3.83;;
73264;SDS011;61493;51.008;14.088;2023-03-21T11:04:13;6.07;;;3.92;;
73264;SDS011;61493;51.008;14.088;2023-03-21T11:06:40;6.70;;;3.88;;
73264;SDS011;61493;51.008;14.088;2023-03-21T11:09:14;6.10;;;3.25;;
73264;SDS011;61493;51.008;14.088;2023-03-21T11:12:02;5.28;;;3.30;;
73264;SDS011;61493;51.008;14.088;2023-03-21T11:14:29;5.68;;;3.35;;
73264;SDS011;61493;51.008;14.088;2023-03-21T11:16:56;5.85;;;3.60;;
73264;SDS011;61493;51.008;14.088;2023-03-21T11:19:31;6.78;;;3.67;;
73264;SDS011;61493;51.008;14.088;2023-03-21T11:22:06;6.80;;;3.63;;
73264;SDS011;61493;51.008;14.088;2023-03-21T11:24:32;6.25;;;3.58;;
73264;SDS011;61493;51.008;14.088;2023-03-21T11:26:57;6.25;;;3.40;;
73264;SDS011;61493;51.008;14.088;2023-03-21T11:29:28;6.53;;;3.97;;
73264;SDS011;61493;51.008;14.088;2023-03-21T11:31:59;5.40;;;3.65;;
73264;SDS011;61493;51.008;14.088;2023-03-21T11:34:47;6.47;;;4.07;;
73264;SDS011;61493;51.008;14.088;2023-03-21T11:37:19;6.55;;;4.13;;
73264;SDS011;61493;51.008;14.088;2023-03-21T11:39:45;6.88;;;4.28;;
73264;SDS011;61493;51.008;14.088;2023-03-21T11:42:30;6.00;;;3.85;;
73264;SDS011;61493;51.008;14.088;2023-03-21T11:45:02;5.35;;;3.28;;
73264;SDS011;61493;51.008;14.088;2023-03-21T11:47:27;4.65;;;3.10;;
73264;SDS011;61493;51.008;14.088;2023-03-21T11:49:52;4.32;;;2.90;;
73264;SDS011;61493;51.008;14.088;2023-03-21T11:52:35;5.70;;;3.92;;
73264;SDS011;61493;51.008;14.088;2023-03-21T11:55:20;27.08;;;16.63;;
73264;SDS011;61493;51.008;14.088;2023-03-21T11:57:56;7.90;;;4.65;;
73264;SDS011;61493;51.008;14.088;2023-03-21T12:00:31;6.88;;;4.35;;
73264;SDS011;61493;51.008;14.088;2023-03-21T12:05:33;6.95;;;3.05;;
73264;SDS011;61493;51.008;14.088;2023-03-21T12:15:47;4.78;;;3.20;;
73264;SDS011;61493;51.008;14.088;2023-03-21T12:21:16;4.40;;;2.78;;
73264;SDS011;61493;51.008;14.088;2023-03-21T12:23:48;4.25;;;2.47;;
73264;SDS011;61493;51.008;14.088;2023-03-21T12:26:29;3.55;;;2.50;;
73264;SDS011;61493;51.008;14.088;2023-03-21T12:29:03;4.85;;;2.70;;
73264;SDS011;61493;51.008;14.088;2023-03-21T12:39:33;5.75;;;3.33;;
73264;SDS011;61493;51.008;14.088;2023-03-21T12:45:29;3.50;;;1.92;;
73264;SDS011;61493;51.008;14.088;2023-03-21T12:47:29;3.92;;;2.60;;
73264;SDS011;61493;51.008;14.088;2023-03-21T12:50:04;6.00;;;4.13;;
73264;SDS011;61493;51.008;14.088;2023-03-21T12:52:32;3.10;;;1.92;;
73264;SDS011;61493;51.008;14.088;2023-03-21T12:55:00;3.63;;;2.60;;
73264;SDS011;61493;51.008;14.088;2023-03-21T13:08:01;2.95;;;1.90;;
73264;SDS011;61493;51.008;14.088;2023-03-21T13:10:38;3.25;;;2.22;;
73264;SDS011;61493;51.008;14.088;2023-03-21T13:13:11;4.03;;;1.80;;
73264;SDS011;61493;51.008;14.088;2023-03-21T13:20:49;3.15;;;1.90;;
73264;SDS011;61493;51.008;14.088;2023-03-21T13:23:17;2.53;;;1.92;;
73264;SDS011;61493;51.008;14.088;2023-03-21T13:25:45;4.55;;;2.25;;
73264;SDS011;61493;51.008;14.088;2023-03-21T13:28:21;6.45;;;2.50;;
73264;SDS011;61493;51.008;14.088;2023-03-21T13:30:47;5.05;;;2.33;;
73264;SDS011;61493;51.008;14.088;2023-03-21T13:33:22;3.42;;;2.20;;
73264;SDS011;61493;51.008;14.088;2023-03-21T13:35:58;3.75;;;2.28;;
73264;SDS011;61493;51.008;14.088;2023-03-21T13:38:29;4.60;;;1.90;;
73264;SDS011;61493;51.008;14.088;2023-03-21T13:41:15;3.22;;;2.03;;
73264;SDS011;61493;51.008;14.088;2023-03-21T13:46:13;4.50;;;2.30;;
73264;SDS011;61493;51.008;14.088;2023-03-21T13:51:07;3.45;;;1.98;;
73264;SDS011;61493;51.008;14.088;2023-03-21T13:53:39;2.45;;;1.80;;
73264;SDS011;61493;51.008;14.088;2023-03-21T13:56:21;3.60;;;2.20;;
73264;SDS011;61493;51.008;14.088;2023-03-21T14:04:38;3.65;;;2.20;;
73264;SDS011;61493;51.008;14.088;2023-03-21T14:06:58;3.60;;;2.10;;
73264;SDS011;61493;51.008;14.088;2023-03-21T14:09:29;7.25;;;1.92;;
73264;SDS011;61493;51.008;14.088;2023-03-21T14:11:56;4.63;;;2.00;;
73264;SDS011;61493;51.008;14.088;2023-03-21T14:14:26;4.63;;;2.17;;
73264;SDS011;61493;51.008;14.088;2023-03-21T14:16:53;3.45;;;1.88;;
73264;SDS011;61493;51.008;14.088;2023-03-21T14:19:18;5.90;;;2.67;;
73264;SDS011;61493;51.008;14.088;2023-03-21T14:21:50;2.75;;;1.70;;
73264;SDS011;61493;51.008;14.088;2023-03-21T14:24:18;3.72;;;2.20;;
73264;SDS011;61493;51.008;14.088;2023-03-21T14:26:45;3.10;;;1.95;;
73264;SDS011;61493;51.008;14.088;2023-03-21T14:29:14;2.88;;;2.03;;
73264;SDS011;61493;51.008;14.088;2023-03-21T14:31:41;2.90;;;2.03;;
73264;SDS011;61493;51.008;14.088;2023-03-21T14:34:09;3.25;;;1.77;;
73264;SDS011;61493;51.008;14.088;2023-03-21T14:36:37;3.63;;;1.85;;
73264;SDS011;61493;51.008;14.088;2023-03-21T14:41:29;3.00;;;1.63;;
73264;SDS011;61493;51.008;14.088;2023-03-21T14:44:16;3.83;;;2.17;;
73264;SDS011;61493;51.008;14.088;2023-03-21T14:46:42;2.95;;;1.65;;
73264;SDS011;61493;51.008;14.088;2023-03-21T14:51:35;4.60;;;1.83;;
73264;SDS011;61493;51.008;14.088;2023-03-21T14:54:01;2.60;;;1.63;;
73264;SDS011;61493;51.008;14.088;2023-03-21T14:56:26;4.37;;;1.60;;
73264;SDS011;61493;51.008;14.088;2023-03-21T14:58:54;4.95;;;2.03;;
73264;SDS011;61493;51.008;14.088;2023-03-21T15:01:30;2.97;;;2.03;;
73264;SDS011;61493;51.008;14.088;2023-03-21T15:03:56;3.83;;;2.50;;
73264;SDS011;61493;51.008;14.088;2023-03-21T15:06:22;2.85;;;1.48;;
73264;SDS011;61493;51.008;14.088;2023-03-21T15:08:57;3.15;;;1.70;;
73264;SDS011;61493;51.008;14.088;2023-03-21T15:11:29;2.53;;;1.75;;
73264;SDS011;61493;51.008;14.088;2023-03-21T15:13:55;3.38;;;1.70;;
73264;SDS011;61493;51.008;14.088;2023-03-21T15:16:22;3.90;;;2.15;;
73264;SDS011;61493;51.008;14.088;2023-03-21T15:18:48;4.18;;;1.80;;
73264;SDS011;61493;51.008;14.088;2023-03-21T15:21:16;4.10;;;2.05;;
73264;SDS011;61493;51.008;14.088;2023-03-21T15:23:43;4.25;;;2.75;;
73264;SDS011;61493;51.008;14.088;2023-03-21T15:26:16;2.58;;;1.70;;
73264;SDS011;61493;51.008;14.088;2023-03-21T15:28:43;3.55;;;1.67;;
73264;SDS011;61493;51.008;14.088;2023-03-21T15:31:50;3.72;;;1.85;;
73264;SDS011;61493;51.008;14.088;2023-03-21T15:33:57;3.95;;;2.00;;
73264;SDS011;61493;51.008;14.088;2023-03-21T15:36:26;3.30;;;2.15;;
73264;SDS011;61493;51.008;14.088;2023-03-21T15:38:52;3.10;;;1.98;;
73264;SDS011;61493;51.008;14.088;2023-03-21T15:43:43;4.03;;;2.58;;
73264;SDS011;61493;51.008;14.088;2023-03-21T15:46:12;9.15;;;4.47;;
73264;SDS011;61493;51.008;14.088;2023-03-21T15:48:38;6.38;;;3.42;;